Airfield :
LOGIN :

Register | Disclaimer

   EN    FR    IT 

 










Legend :    VFR   Marginal VFR   IFR   Intensive IFR   Very Intensive IFR
Visi :
Ceiling :
>= 8 km
>= 3000ft
5 to 8 km
1000 to 3000 ft
1500m to 5 km
500 to 1000 ft
800 to 1500m
200 to 500 ft
< 800m
< 200 ft
Symbols :   Thunderstorms  Fog  Heavy snow  Heavy precipitations  Wind > 20 kt
SIGMETs :     Misc.  Thunderstorms  Icing  Turbulence  Mountain Waves  Volcanic Ashes







- Airport Elevation : 423 ft
- IATA code : PIS
- Download approach charts


LFBI - Poitiers

CURRENT METAR :
  • 112130Z AUTO 06004KT 030V110 9000 OVC006 03/03 Q1022 NOSIG

EXPIRED METARs :
  • 112100Z AUTO 06004KT 9999 BKN006 OVC160 04/03 Q1022 TEMPO BKN004
  • 112030Z AUTO 06005KT 030V090 9999 BKN006 04/03 Q1022 TEMPO BKN004
  • 112000Z AUTO 07006KT 040V100 9999 OVC004 04/04 Q1022 NOSIG
  • 111930Z AUTO 09006KT 050V120 9999 OVC005 05/04 Q1022 NOSIG
  • 111900Z AUTO 08007KT 040V110 9000 OVC004 05/04 Q1023 NOSIG

TAF TAF LFBI
Valid from the 11 at 18:00 until the 12 at 18:00 UTC


111700Z 1118/1218 05005KT 9999 OVC006
TEMPO 1118/1122 BKN004
BECMG 1204/1206 OVC004
TEMPO 1206/1210 3000 -RA OVC002
BECMG 1212/1214 BKN020
No reported NOTAMs for that airfield.



MET'MAP, your aeronautical weather chart ! - Copyright ORBIFLY December 2007 - Disclaimer

ORBIFLY MET'MAP TEAM :

Programming & Development : Alexandra Zaïnal
Concept & Development : Baudouin d'Aumeries
Co-Development & Prog : Marc-Olivier Méhu
Technical & hardware support : Manuel Goepfert

Contact : metmap@orbifly.com




SOURCES & CREDITS :

   NOAA